sensor_id;sensor_type;location;lat;lon;timestamp;temperature;humidity
27848;DHT22;15212;48.830;8.730;2023-05-10T00:00:28;11.90;99.90
27848;DHT22;15212;48.830;8.730;2023-05-10T00:02:56;11.90;99.90
27848;DHT22;15212;48.830;8.730;2023-05-10T00:05:24;11.90;99.90
27848;DHT22;15212;48.830;8.730;2023-05-10T00:07:53;11.90;99.90
27848;DHT22;15212;48.830;8.730;2023-05-10T00:10:21;11.90;99.90
27848;DHT22;15212;48.830;8.730;2023-05-10T00:12:50;11.90;99.90
27848;DHT22;15212;48.830;8.730;2023-05-10T00:15:18;11.80;99.90
27848;DHT22;15212;48.830;8.730;2023-05-10T00:17:46;11.80;99.90
27848;DHT22;15212;48.830;8.730;2023-05-10T00:20:15;11.80;99.90
27848;DHT22;15212;48.830;8.730;2023-05-10T00:22:43;11.70;99.90
27848;DHT22;15212;48.830;8.730;2023-05-10T00:25:11;11.70;99.90
27848;DHT22;15212;48.830;8.730;2023-05-10T00:27:40;11.70;99.90
27848;DHT22;15212;48.830;8.730;2023-05-10T00:30:08;11.70;99.90
27848;DHT22;15212;48.830;8.730;2023-05-10T00:32:37;11.70;99.90
27848;DHT22;15212;48.830;8.730;2023-05-10T00:35:05;11.70;99.90
27848;DHT22;15212;48.830;8.730;2023-05-10T00:37:34;11.70;99.90
27848;DHT22;15212;48.830;8.730;2023-05-10T00:40:03;11.70;99.90
27848;DHT22;15212;48.830;8.730;2023-05-10T00:42:31;11.70;99.90
27848;DHT22;15212;48.830;8.730;2023-05-10T00:45:00;11.70;99.90
27848;DHT22;15212;48.830;8.730;2023-05-10T00:47:29;11.70;99.90
27848;DHT22;15212;48.830;8.730;2023-05-10T00:49:58;11.70;99.90
27848;DHT22;15212;48.830;8.730;2023-05-10T00:52:30;11.70;99.90
27848;DHT22;15212;48.830;8.730;2023-05-10T00:54:58;11.70;99.90
27848;DHT22;15212;48.830;8.730;2023-05-10T00:57:27;11.60;99.90
27848;DHT22;15212;48.830;8.730;2023-05-10T00:59:57;11.70;99.90
27848;DHT22;15212;48.830;8.730;2023-05-10T01:02:26;11.70;99.90
27848;DHT22;15212;48.830;8.730;2023-05-10T01:04:55;11.70;99.90
27848;DHT22;15212;48.830;8.730;2023-05-10T01:07:23;11.60;99.90
27848;DHT22;15212;48.830;8.730;2023-05-10T01:09:52;11.60;99.90
27848;DHT22;15212;48.830;8.730;2023-05-10T01:12:20;11.70;99.90
27848;DHT22;15212;48.830;8.730;2023-05-10T01:14:49;11.70;99.90
27848;DHT22;15212;48.830;8.730;2023-05-10T01:17:17;11.70;99.90
27848;DHT22;15212;48.830;8.730;2023-05-10T01:19:46;11.60;99.90
27848;DHT22;15212;48.830;8.730;2023-05-10T01:22:27;11.60;99.90
27848;DHT22;15212;48.830;8.730;2023-05-10T01:31:05;11.70;99.90
27848;DHT22;15212;48.830;8.730;2023-05-10T01:34:27;11.70;99.90
27848;DHT22;15212;48.830;8.730;2023-05-10T01:36:30;11.70;99.90
27848;DHT22;15212;48.830;8.730;2023-05-10T01:39:11;11.70;99.90
27848;DHT22;15212;48.830;8.730;2023-05-10T01:42:07;11.70;99.90
27848;DHT22;15212;48.830;8.730;2023-05-10T01:47:50;11.60;99.90
27848;DHT22;15212;48.830;8.730;2023-05-10T01:50:22;11.70;99.90
27848;DHT22;15212;48.830;8.730;2023-05-10T01:52:56;11.60;99.90
27848;DHT22;15212;48.830;8.730;2023-05-10T01:55:34;11.60;99.90
27848;DHT22;15212;48.830;8.730;2023-05-10T01:58:08;11.60;99.90
27848;DHT22;15212;48.830;8.730;2023-05-10T02:00:47;11.60;99.90
27848;DHT22;15212;48.830;8.730;2023-05-10T02:03:16;11.70;99.90
27848;DHT22;15212;48.830;8.730;2023-05-10T02:05:49;11.70;99.90
27848;DHT22;15212;48.830;8.730;2023-05-10T02:08:19;11.70;99.90
27848;DHT22;15212;48.830;8.730;2023-05-10T02:10:51;11.70;99.90
27848;DHT22;15212;48.830;8.730;2023-05-10T02:13:21;11.70;99.90
27848;DHT22;15212;48.830;8.730;2023-05-10T02:15:53;11.80;99.90
27848;DHT22;15212;48.830;8.730;2023-05-10T02:18:23;11.70;99.90
27848;DHT22;15212;48.830;8.730;2023-05-10T02:20:55;11.70;99.90
27848;DHT22;15212;48.830;8.730;2023-05-10T02:23:24;11.80;99.90
27848;DHT22;15212;48.830;8.730;2023-05-10T02:25:54;11.80;99.90
27848;DHT22;15212;48.830;8.730;2023-05-10T02:28:24;11.70;99.90
27848;DHT22;15212;48.830;8.730;2023-05-10T02:30:54;11.80;99.90
27848;DHT22;15212;48.830;8.730;2023-05-10T02:33:23;11.80;99.90
27848;DHT22;15212;48.830;8.730;2023-05-10T02:35:52;11.70;99.90
27848;DHT22;15212;48.830;8.730;2023-05-10T02:38:22;11.80;99.90
27848;DHT22;15212;48.830;8.730;2023-05-10T02:40:53;11.80;99.90
27848;DHT22;15212;48.830;8.730;2023-05-10T02:43:23;11.80;99.90
27848;DHT22;15212;48.830;8.730;2023-05-10T02:45:52;11.80;99.90
27848;DHT22;15212;48.830;8.730;2023-05-10T02:48:21;11.80;99.90
27848;DHT22;15212;48.830;8.730;2023-05-10T02:50:51;11.70;99.90
27848;DHT22;15212;48.830;8.730;2023-05-10T02:53:28;11.80;99.90
27848;DHT22;15212;48.830;8.730;2023-05-10T02:55:56;11.80;99.90
27848;DHT22;15212;48.830;8.730;2023-05-10T02:58:26;11.80;99.90
27848;DHT22;15212;48.830;8.730;2023-05-10T03:00:55;11.80;99.90
27848;DHT22;15212;48.830;8.730;2023-05-10T03:03:23;11.80;99.90
27848;DHT22;15212;48.830;8.730;2023-05-10T03:05:51;11.80;99.90
27848;DHT22;15212;48.830;8.730;2023-05-10T03:08:22;11.80;99.90
27848;DHT22;15212;48.830;8.730;2023-05-10T03:11:09;11.80;99.90
27848;DHT22;15212;48.830;8.730;2023-05-10T03:14:25;11.90;99.90
27848;DHT22;15212;48.830;8.730;2023-05-10T03:16:52;11.90;99.90
27848;DHT22;15212;48.830;8.730;2023-05-10T03:19:22;11.80;99.90
27848;DHT22;15212;48.830;8.730;2023-05-10T03:21:53;11.80;99.90
27848;DHT22;15212;48.830;8.730;2023-05-10T03:24:24;11.80;99.90
27848;DHT22;15212;48.830;8.730;2023-05-10T03:26:56;11.80;99.90
27848;DHT22;15212;48.830;8.730;2023-05-10T03:29:28;11.80;99.90
27848;DHT22;15212;48.830;8.730;2023-05-10T03:32:00;11.80;99.90
27848;DHT22;15212;48.830;8.730;2023-05-10T03:34:30;11.80;99.90
27848;DHT22;15212;48.830;8.730;2023-05-10T03:36:59;11.80;99.90
27848;DHT22;15212;48.830;8.730;2023-05-10T03:39:27;11.80;99.90
27848;DHT22;15212;48.830;8.730;2023-05-10T03:41:55;11.80;99.90
27848;DHT22;15212;48.830;8.730;2023-05-10T03:44:24;11.70;99.90
27848;DHT22;15212;48.830;8.730;2023-05-10T03:46:52;11.70;99.90
27848;DHT22;15212;48.830;8.730;2023-05-10T03:49:20;11.70;99.90
27848;DHT22;15212;48.830;8.730;2023-05-10T03:51:49;11.70;99.90
27848;DHT22;15212;48.830;8.730;2023-05-10T03:54:17;11.70;99.90
27848;DHT22;15212;48.830;8.730;2023-05-10T03:56:46;11.70;99.90
27848;DHT22;15212;48.830;8.730;2023-05-10T03:59:15;11.70;99.90
27848;DHT22;15212;48.830;8.730;2023-05-10T04:01:43;11.70;99.90
27848;DHT22;15212;48.830;8.730;2023-05-10T04:04:11;11.70;99.90
27848;DHT22;15212;48.830;8.730;2023-05-10T04:06:40;11.70;99.90
27848;DHT22;15212;48.830;8.730;2023-05-10T04:09:08;11.70;99.90
27848;DHT22;15212;48.830;8.730;2023-05-10T04:11:37;11.70;99.90
27848;DHT22;15212;48.830;8.730;2023-05-10T04:14:05;11.80;99.90
27848;DHT22;15212;48.830;8.730;2023-05-10T04:16:34;11.80;99.90
27848;DHT22;15212;48.830;8.730;2023-05-10T04:19:02;11.70;99.90
27848;DHT22;15212;48.830;8.730;2023-05-10T04:21:30;11.70;99.90
27848;DHT22;15212;48.830;8.730;2023-05-10T04:23:59;11.70;99.90
27848;DHT22;15212;48.830;8.730;2023-05-10T04:26:27;11.70;99.90
27848;DHT22;15212;48.830;8.730;2023-05-10T04:28:56;11.70;99.90
27848;DHT22;15212;48.830;8.730;2023-05-10T04:31:24;11.70;99.90
27848;DHT22;15212;48.830;8.730;2023-05-10T04:33:54;11.70;99.90
27848;DHT22;15212;48.830;8.730;2023-05-10T04:36:22;11.70;99.90
27848;DHT22;15212;48.830;8.730;2023-05-10T04:38:51;11.70;99.90
27848;DHT22;15212;48.830;8.730;2023-05-10T04:41:19;11.80;99.90
27848;DHT22;15212;48.830;8.730;2023-05-10T04:43:47;11.80;99.90
27848;DHT22;15212;48.830;8.730;2023-05-10T04:46:16;11.80;99.90
27848;DHT22;15212;48.830;8.730;2023-05-10T04:48:44;11.80;99.90
27848;DHT22;15212;48.830;8.730;2023-05-10T04:51:13;11.80;99.90
27848;DHT22;15212;48.830;8.730;2023-05-10T04:53:41;11.80;99.90
27848;DHT22;15212;48.830;8.730;2023-05-10T04:56:09;11.80;99.90
27848;DHT22;15212;48.830;8.730;2023-05-10T04:58:38;11.80;99.90
27848;DHT22;15212;48.830;8.730;2023-05-10T05:01:07;11.80;99.90
27848;DHT22;15212;48.830;8.730;2023-05-10T05:03:37;11.80;99.90
27848;DHT22;15212;48.830;8.730;2023-05-10T05:06:05;11.90;99.90
27848;DHT22;15212;48.830;8.730;2023-05-10T05:08:34;11.90;99.90
27848;DHT22;15212;48.830;8.730;2023-05-10T05:11:02;11.90;99.90
27848;DHT22;15212;48.830;8.730;2023-05-10T05:13:30;11.90;99.90
27848;DHT22;15212;48.830;8.730;2023-05-10T05:16:01;11.90;99.90
27848;DHT22;15212;48.830;8.730;2023-05-10T05:18:29;11.90;99.90
27848;DHT22;15212;48.830;8.730;2023-05-10T05:20:58;11.90;99.90
27848;DHT22;15212;48.830;8.730;2023-05-10T05:23:26;11.90;99.90
27848;DHT22;15212;48.830;8.730;2023-05-10T05:25:54;12.00;99.90
27848;DHT22;15212;48.830;8.730;2023-05-10T05:28:23;11.90;99.90
27848;DHT22;15212;48.830;8.730;2023-05-10T05:30:51;12.00;99.90
27848;DHT22;15212;48.830;8.730;2023-05-10T05:33:19;12.00;99.90
27848;DHT22;15212;48.830;8.730;2023-05-10T05:35:48;12.00;99.90
27848;DHT22;15212;48.830;8.730;2023-05-10T05:38:17;12.00;99.90
27848;DHT22;15212;48.830;8.730;2023-05-10T05:40:46;12.00;99.90
27848;DHT22;15212;48.830;8.730;2023-05-10T05:43:14;12.00;99.90
27848;DHT22;15212;48.830;8.730;2023-05-10T05:45:43;12.00;99.90
27848;DHT22;15212;48.830;8.730;2023-05-10T05:48:11;12.00;99.90
27848;DHT22;15212;48.830;8.730;2023-05-10T05:50:39;12.00;99.90
27848;DHT22;15212;48.830;8.730;2023-05-10T05:53:09;12.10;99.90
27848;DHT22;15212;48.830;8.730;2023-05-10T05:55:37;12.10;99.90
27848;DHT22;15212;48.830;8.730;2023-05-10T05:58:05;12.20;99.90
27848;DHT22;15212;48.830;8.730;2023-05-10T06:00:34;12.20;99.90
27848;DHT22;15212;48.830;8.730;2023-05-10T06:03:02;12.20;99.90
27848;DHT22;15212;48.830;8.730;2023-05-10T06:05:31;12.30;99.90
27848;DHT22;15212;48.830;8.730;2023-05-10T06:08:00;12.30;99.90
27848;DHT22;15212;48.830;8.730;2023-05-10T06:10:28;12.30;99.90
27848;DHT22;15212;48.830;8.730;2023-05-10T06:12:56;12.30;99.90
27848;DHT22;15212;48.830;8.730;2023-05-10T06:15:25;12.40;99.90
27848;DHT22;15212;48.830;8.730;2023-05-10T06:17:53;12.40;99.90
27848;DHT22;15212;48.830;8.730;2023-05-10T06:20:22;12.50;99.90
27848;DHT22;15212;48.830;8.730;2023-05-10T06:22:50;12.50;99.90
27848;DHT22;15212;48.830;8.730;2023-05-10T06:25:18;12.50;99.90
27848;DHT22;15212;48.830;8.730;2023-05-10T06:27:47;12.60;99.90
27848;DHT22;15212;48.830;8.730;2023-05-10T06:30:16;12.50;99.90
27848;DHT22;15212;48.830;8.730;2023-05-10T06:32:44;12.60;99.90
27848;DHT22;15212;48.830;8.730;2023-05-10T06:35:13;12.60;99.90
27848;DHT22;15212;48.830;8.730;2023-05-10T06:37:41;12.70;99.90
27848;DHT22;15212;48.830;8.730;2023-05-10T06:40:10;12.80;99.90
27848;DHT22;15212;48.830;8.730;2023-05-10T06:42:38;12.90;99.90
27848;DHT22;15212;48.830;8.730;2023-05-10T06:45:07;13.00;99.90
27848;DHT22;15212;48.830;8.730;2023-05-10T06:47:36;13.20;99.90
27848;DHT22;15212;48.830;8.730;2023-05-10T06:50:05;13.30;99.90
27848;DHT22;15212;48.830;8.730;2023-05-10T06:52:35;13.40;99.90
27848;DHT22;15212;48.830;8.730;2023-05-10T06:55:04;13.30;99.90
27848;DHT22;15212;48.830;8.730;2023-05-10T06:57:32;13.30;99.90
27848;DHT22;15212;48.830;8.730;2023-05-10T07:00:02;13.40;99.90
27848;DHT22;15212;48.830;8.730;2023-05-10T07:02:31;13.30;99.90
27848;DHT22;15212;48.830;8.730;2023-05-10T07:04:59;13.30;99.90
27848;DHT22;15212;48.830;8.730;2023-05-10T07:07:28;13.40;99.90
27848;DHT22;15212;48.830;8.730;2023-05-10T07:09:57;13.40;99.90
27848;DHT22;15212;48.830;8.730;2023-05-10T07:12:27;13.30;99.90
27848;DHT22;15212;48.830;8.730;2023-05-10T07:14:55;13.40;99.90
27848;DHT22;15212;48.830;8.730;2023-05-10T07:17:23;13.30;99.90
27848;DHT22;15212;48.830;8.730;2023-05-10T07:19:52;13.40;99.90
27848;DHT22;15212;48.830;8.730;2023-05-10T07:22:20;13.40;99.90
27848;DHT22;15212;48.830;8.730;2023-05-10T07:24:48;13.40;99.90
27848;DHT22;15212;48.830;8.730;2023-05-10T07:27:17;13.30;99.90
27848;DHT22;15212;48.830;8.730;2023-05-10T07:29:45;13.30;99.90
27848;DHT22;15212;48.830;8.730;2023-05-10T07:32:14;13.30;99.90
27848;DHT22;15212;48.830;8.730;2023-05-10T07:34:42;13.30;99.90
27848;DHT22;15212;48.830;8.730;2023-05-10T07:37:10;13.30;99.90
27848;DHT22;15212;48.830;8.730;2023-05-10T07:39:39;13.30;99.90
27848;DHT22;15212;48.830;8.730;2023-05-10T07:42:07;13.40;99.90
27848;DHT22;15212;48.830;8.730;2023-05-10T07:44:36;13.40;99.90
27848;DHT22;15212;48.830;8.730;2023-05-10T07:47:04;13.50;99.90
27848;DHT22;15212;48.830;8.730;2023-05-10T07:49:33;13.60;99.90
27848;DHT22;15212;48.830;8.730;2023-05-10T07:52:03;13.80;99.90
27848;DHT22;15212;48.830;8.730;2023-05-10T07:54:32;13.80;99.90
27848;DHT22;15212;48.830;8.730;2023-05-10T07:57:00;13.90;99.90
27848;DHT22;15212;48.830;8.730;2023-05-10T07:59:29;13.90;99.90
27848;DHT22;15212;48.830;8.730;2023-05-10T08:01:57;14.00;99.90
27848;DHT22;15212;48.830;8.730;2023-05-10T08:04:25;14.00;99.90
27848;DHT22;15212;48.830;8.730;2023-05-10T08:06:54;14.00;99.90
27848;DHT22;15212;48.830;8.730;2023-05-10T08:09:22;13.80;99.90
27848;DHT22;15212;48.830;8.730;2023-05-10T08:11:51;13.80;99.90
27848;DHT22;15212;48.830;8.730;2023-05-10T08:14:19;13.80;99.90
27848;DHT22;15212;48.830;8.730;2023-05-10T08:16:47;13.70;99.90
27848;DHT22;15212;48.830;8.730;2023-05-10T08:19:16;13.70;99.90
27848;DHT22;15212;48.830;8.730;2023-05-10T08:21:48;13.80;99.90
27848;DHT22;15212;48.830;8.730;2023-05-10T08:24:16;13.70;99.90
27848;DHT22;15212;48.830;8.730;2023-05-10T08:26:44;13.70;99.90
27848;DHT22;15212;48.830;8.730;2023-05-10T08:29:14;13.70;99.90
27848;DHT22;15212;48.830;8.730;2023-05-10T08:31:43;13.70;99.90
27848;DHT22;15212;48.830;8.730;2023-05-10T08:34:11;13.70;99.90
27848;DHT22;15212;48.830;8.730;2023-05-10T08:36:40;13.70;99.90
27848;DHT22;15212;48.830;8.730;2023-05-10T08:39:08;13.70;99.90
27848;DHT22;15212;48.830;8.730;2023-05-10T08:41:38;13.80;99.90
27848;DHT22;15212;48.830;8.730;2023-05-10T08:44:08;13.90;99.90
27848;DHT22;15212;48.830;8.730;2023-05-10T08:46:37;13.90;99.90
27848;DHT22;15212;48.830;8.730;2023-05-10T08:49:12;13.70;99.90
27848;DHT22;15212;48.830;8.730;2023-05-10T08:51:46;13.60;99.90
27848;DHT22;15212;48.830;8.730;2023-05-10T08:54:16;13.50;99.90
27848;DHT22;15212;48.830;8.730;2023-05-10T08:56:44;13.40;99.90
27848;DHT22;15212;48.830;8.730;2023-05-10T08:59:13;13.40;99.90
27848;DHT22;15212;48.830;8.730;2023-05-10T09:01:44;13.50;99.90
27848;DHT22;15212;48.830;8.730;2023-05-10T09:04:13;13.50;99.90
27848;DHT22;15212;48.830;8.730;2023-05-10T09:06:42;13.60;99.90
27848;DHT22;15212;48.830;8.730;2023-05-10T09:09:10;13.70;99.90
27848;DHT22;15212;48.830;8.730;2023-05-10T09:11:39;13.70;99.90
27848;DHT22;15212;48.830;8.730;2023-05-10T09:14:08;13.80;99.90
27848;DHT22;15212;48.830;8.730;2023-05-10T09:16:38;13.80;99.90
27848;DHT22;15212;48.830;8.730;2023-05-10T09:19:08;13.90;99.90
27848;DHT22;15212;48.830;8.730;2023-05-10T09:21:37;14.10;99.90
27848;DHT22;15212;48.830;8.730;2023-05-10T09:24:06;14.20;99.90
27848;DHT22;15212;48.830;8.730;2023-05-10T09:26:39;14.40;99.90
27848;DHT22;15212;48.830;8.730;2023-05-10T09:29:07;14.40;99.90
27848;DHT22;15212;48.830;8.730;2023-05-10T09:31:47;14.40;99.90
27848;DHT22;15212;48.830;8.730;2023-05-10T09:34:18;14.30;99.90
27848;DHT22;15212;48.830;8.730;2023-05-10T09:37:02;14.20;99.90
27848;DHT22;15212;48.830;8.730;2023-05-10T09:39:35;14.10;99.90
27848;DHT22;15212;48.830;8.730;2023-05-10T09:42:06;14.10;99.90
27848;DHT22;15212;48.830;8.730;2023-05-10T09:44:36;14.10;99.90
27848;DHT22;15212;48.830;8.730;2023-05-10T09:47:04;14.00;99.90
27848;DHT22;15212;48.830;8.730;2023-05-10T09:49:33;13.90;99.90
27848;DHT22;15212;48.830;8.730;2023-05-10T09:52:04;13.80;99.90
27848;DHT22;15212;48.830;8.730;2023-05-10T09:54:34;13.60;99.90
27848;DHT22;15212;48.830;8.730;2023-05-10T09:57:03;13.50;99.90
27848;DHT22;15212;48.830;8.730;2023-05-10T09:59:33;13.30;99.90
27848;DHT22;15212;48.830;8.730;2023-05-10T10:02:02;13.10;99.90
27848;DHT22;15212;48.830;8.730;2023-05-10T10:04:30;12.90;99.90
27848;DHT22;15212;48.830;8.730;2023-05-10T10:07:01;12.70;99.90
27848;DHT22;15212;48.830;8.730;2023-05-10T10:09:31;12.60;99.90
27848;DHT22;15212;48.830;8.730;2023-05-10T10:12:04;12.60;99.90
27848;DHT22;15212;48.830;8.730;2023-05-10T10:14:32;12.70;99.90
27848;DHT22;15212;48.830;8.730;2023-05-10T10:17:02;12.80;99.90
27848;DHT22;15212;48.830;8.730;2023-05-10T10:19:37;13.00;99.90
27848;DHT22;15212;48.830;8.730;2023-05-10T10:22:02;13.20;99.90
27848;DHT22;15212;48.830;8.730;2023-05-10T10:24:30;13.40;99.90
27848;DHT22;15212;48.830;8.730;2023-05-10T10:27:15;13.50;99.90
27848;DHT22;15212;48.830;8.730;2023-05-10T10:30:10;13.60;99.90
27848;DHT22;15212;48.830;8.730;2023-05-10T10:36:01;13.60;99.90
27848;DHT22;15212;48.830;8.730;2023-05-10T10:41:31;13.80;99.90
27848;DHT22;15212;48.830;8.730;2023-05-10T10:50:08;14.30;99.90
27848;DHT22;15212;48.830;8.730;2023-05-10T10:52:40;14.50;99.90
27848;DHT22;15212;48.830;8.730;2023-05-10T10:55:17;14.60;99.90
27848;DHT22;15212;48.830;8.730;2023-05-10T10:57:50;14.50;99.90
27848;DHT22;15212;48.830;8.730;2023-05-10T11:00:35;14.30;99.90
27848;DHT22;15212;48.830;8.730;2023-05-10T11:03:06;14.10;99.90
27848;DHT22;15212;48.830;8.730;2023-05-10T11:08:31;14.10;99.90
27848;DHT22;15212;48.830;8.730;2023-05-10T11:11:03;14.00;99.90
27848;DHT22;15212;48.830;8.730;2023-05-10T11:13:44;13.80;99.90
27848;DHT22;15212;48.830;8.730;2023-05-10T11:16:20;13.70;99.90
27848;DHT22;15212;48.830;8.730;2023-05-10T11:19:02;13.60;99.90
27848;DHT22;15212;48.830;8.730;2023-05-10T11:21:43;13.60;99.90
27848;DHT22;15212;48.830;8.730;2023-05-10T11:24:20;13.60;99.90
27848;DHT22;15212;48.830;8.730;2023-05-10T11:26:53;13.50;99.90
27848;DHT22;15212;48.830;8.730;2023-05-10T11:29:22;13.50;99.90
27848;DHT22;15212;48.830;8.730;2023-05-10T11:31:52;13.60;99.90
27848;DHT22;15212;48.830;8.730;2023-05-10T11:34:28;13.70;99.90
27848;DHT22;15212;48.830;8.730;2023-05-10T11:36:59;13.70;99.90
27848;DHT22;15212;48.830;8.730;2023-05-10T11:39:29;13.90;99.90
27848;DHT22;15212;48.830;8.730;2023-05-10T11:42:00;14.00;99.90
27848;DHT22;15212;48.830;8.730;2023-05-10T11:44:32;14.00;99.90
27848;DHT22;15212;48.830;8.730;2023-05-10T11:47:01;14.00;99.90
27848;DHT22;15212;48.830;8.730;2023-05-10T11:49:30;14.00;99.90
27848;DHT22;15212;48.830;8.730;2023-05-10T11:52:07;13.90;99.90
27848;DHT22;15212;48.830;8.730;2023-05-10T11:54:37;14.00;99.90
27848;DHT22;15212;48.830;8.730;2023-05-10T11:57:07;14.10;99.90
27848;DHT22;15212;48.830;8.730;2023-05-10T11:59:36;14.10;99.90
27848;DHT22;15212;48.830;8.730;2023-05-10T12:02:05;14.10;99.90
27848;DHT22;15212;48.830;8.730;2023-05-10T12:04:33;14.10;99.90
27848;DHT22;15212;48.830;8.730;2023-05-10T12:07:02;14.10;99.90
27848;DHT22;15212;48.830;8.730;2023-05-10T12:09:30;14.00;99.90
27848;DHT22;15212;48.830;8.730;2023-05-10T12:11:58;14.10;99.90
27848;DHT22;15212;48.830;8.730;2023-05-10T12:14:27;14.10;99.90
27848;DHT22;15212;48.830;8.730;2023-05-10T12:16:57;14.10;99.90
27848;DHT22;15212;48.830;8.730;2023-05-10T12:19:26;14.30;99.90
27848;DHT22;15212;48.830;8.730;2023-05-10T12:21:54;14.40;99.90
27848;DHT22;15212;48.830;8.730;2023-05-10T12:24:24;14.50;99.90
27848;DHT22;15212;48.830;8.730;2023-05-10T12:26:53;14.60;99.90
27848;DHT22;15212;48.830;8.730;2023-05-10T12:29:21;14.90;99.90
27848;DHT22;15212;48.830;8.730;2023-05-10T12:31:54;14.90;99.90
27848;DHT22;15212;48.830;8.730;2023-05-10T12:34:32;15.00;99.90
27848;DHT22;15212;48.830;8.730;2023-05-10T12:37:03;15.10;99.90
27848;DHT22;15212;48.830;8.730;2023-05-10T12:39:42;15.10;99.90
27848;DHT22;15212;48.830;8.730;2023-05-10T12:42:12;15.10;99.90
27848;DHT22;15212;48.830;8.730;2023-05-10T12:44:40;15.20;99.90
27848;DHT22;15212;48.830;8.730;2023-05-10T12:47:09;15.30;99.90
27848;DHT22;15212;48.830;8.730;2023-05-10T12:49:37;15.40;99.90
27848;DHT22;15212;48.830;8.730;2023-05-10T12:52:06;15.40;99.90
27848;DHT22;15212;48.830;8.730;2023-05-10T12:54:34;15.30;99.90
27848;DHT22;15212;48.830;8.730;2023-05-10T12:57:02;15.20;99.90
27848;DHT22;15212;48.830;8.730;2023-05-10T12:59:31;15.20;99.90
27848;DHT22;15212;48.830;8.730;2023-05-10T13:01:59;15.10;99.90
27848;DHT22;15212;48.830;8.730;2023-05-10T13:04:28;15.10;99.90
27848;DHT22;15212;48.830;8.730;2023-05-10T13:06:56;14.90;99.90
27848;DHT22;15212;48.830;8.730;2023-05-10T13:09:26;14.90;99.90
27848;DHT22;15212;48.830;8.730;2023-05-10T13:11:57;14.90;99.90
27848;DHT22;15212;48.830;8.730;2023-05-10T13:14:26;15.00;99.90
27848;DHT22;15212;48.830;8.730;2023-05-10T13:16:54;15.10;99.90
27848;DHT22;15212;48.830;8.730;2023-05-10T13:19:23;15.00;99.90
27848;DHT22;15212;48.830;8.730;2023-05-10T13:21:51;15.10;99.90
27848;DHT22;15212;48.830;8.730;2023-05-10T13:24:20;15.20;99.90
27848;DHT22;15212;48.830;8.730;2023-05-10T13:26:48;15.40;99.90
27848;DHT22;15212;48.830;8.730;2023-05-10T13:29:17;15.30;99.90
27848;DHT22;15212;48.830;8.730;2023-05-10T13:31:46;15.30;99.90
27848;DHT22;15212;48.830;8.730;2023-05-10T13:34:14;15.50;99.90
27848;DHT22;15212;48.830;8.730;2023-05-10T13:36:43;15.40;99.90
27848;DHT22;15212;48.830;8.730;2023-05-10T13:39:11;15.40;99.90
27848;DHT22;15212;48.830;8.730;2023-05-10T13:41:39;15.40;99.90
27848;DHT22;15212;48.830;8.730;2023-05-10T13:44:08;15.50;99.90
27848;DHT22;15212;48.830;8.730;2023-05-10T13:46:37;15.50;99.90
27848;DHT22;15212;48.830;8.730;2023-05-10T13:49:05;15.40;99.90
27848;DHT22;15212;48.830;8.730;2023-05-10T13:51:34;15.30;99.90
27848;DHT22;15212;48.830;8.730;2023-05-10T13:54:03;15.30;99.90
27848;DHT22;15212;48.830;8.730;2023-05-10T13:56:32;15.20;99.90
27848;DHT22;15212;48.830;8.730;2023-05-10T13:59:01;15.30;99.90
27848;DHT22;15212;48.830;8.730;2023-05-10T14:01:29;15.30;99.90
27848;DHT22;15212;48.830;8.730;2023-05-10T14:03:57;15.40;99.90
27848;DHT22;15212;48.830;8.730;2023-05-10T14:06:26;15.40;99.90
27848;DHT22;15212;48.830;8.730;2023-05-10T14:08:54;15.50;99.90
27848;DHT22;15212;48.830;8.730;2023-05-10T14:11:23;15.50;99.90
27848;DHT22;15212;48.830;8.730;2023-05-10T14:13:51;15.50;99.90
27848;DHT22;15212;48.830;8.730;2023-05-10T14:16:20;15.40;99.90
27848;DHT22;15212;48.830;8.730;2023-05-10T14:18:50;15.40;99.90
27848;DHT22;15212;48.830;8.730;2023-05-10T14:21:18;15.40;99.90
27848;DHT22;15212;48.830;8.730;2023-05-10T14:23:47;15.40;99.90
27848;DHT22;15212;48.830;8.730;2023-05-10T14:26:15;15.30;99.90
27848;DHT22;15212;48.830;8.730;2023-05-10T14:28:44;15.40;99.90
27848;DHT22;15212;48.830;8.730;2023-05-10T14:31:12;15.50;99.90
27848;DHT22;15212;48.830;8.730;2023-05-10T14:33:41;15.50;99.90
27848;DHT22;15212;48.830;8.730;2023-05-10T14:36:09;15.50;99.90
27848;DHT22;15212;48.830;8.730;2023-05-10T14:38:37;15.50;99.90
27848;DHT22;15212;48.830;8.730;2023-05-10T14:41:07;15.50;99.90
27848;DHT22;15212;48.830;8.730;2023-05-10T14:43:35;15.60;99.90
27848;DHT22;15212;48.830;8.730;2023-05-10T14:46:04;15.60;99.90
27848;DHT22;15212;48.830;8.730;2023-05-10T14:48:32;15.50;99.90
27848;DHT22;15212;48.830;8.730;2023-05-10T14:51:01;15.50;99.90
27848;DHT22;15212;48.830;8.730;2023-05-10T14:53:30;15.50;99.90
27848;DHT22;15212;48.830;8.730;2023-05-10T14:55:59;15.50;99.90
27848;DHT22;15212;48.830;8.730;2023-05-10T14:58:29;15.60;99.90
27848;DHT22;15212;48.830;8.730;2023-05-10T15:00:57;15.60;99.90
27848;DHT22;15212;48.830;8.730;2023-05-10T15:03:26;15.60;99.90
27848;DHT22;15212;48.830;8.730;2023-05-10T15:05:54;15.60;99.90
27848;DHT22;15212;48.830;8.730;2023-05-10T15:08:24;15.60;99.90
27848;DHT22;15212;48.830;8.730;2023-05-10T15:10:52;15.60;99.90
27848;DHT22;15212;48.830;8.730;2023-05-10T15:13:22;15.60;99.90
27848;DHT22;15212;48.830;8.730;2023-05-10T15:15:50;15.60;99.90
27848;DHT22;15212;48.830;8.730;2023-05-10T15:18:19;15.60;99.90
27848;DHT22;15212;48.830;8.730;2023-05-10T15:20:47;15.60;99.90
27848;DHT22;15212;48.830;8.730;2023-05-10T15:23:16;15.50;99.90
27848;DHT22;15212;48.830;8.730;2023-05-10T15:25:44;15.40;99.90
27848;DHT22;15212;48.830;8.730;2023-05-10T15:28:12;15.40;99.90
27848;DHT22;15212;48.830;8.730;2023-05-10T15:30:41;15.40;99.90
27848;DHT22;15212;48.830;8.730;2023-05-10T15:33:09;15.40;99.90
27848;DHT22;15212;48.830;8.730;2023-05-10T15:35:37;15.40;99.90
27848;DHT22;15212;48.830;8.730;2023-05-10T15:38:06;15.50;99.90
27848;DHT22;15212;48.830;8.730;2023-05-10T15:40:34;15.50;99.90
27848;DHT22;15212;48.830;8.730;2023-05-10T15:43:03;15.40;99.90
27848;DHT22;15212;48.830;8.730;2023-05-10T15:45:33;15.30;99.90
27848;DHT22;15212;48.830;8.730;2023-05-10T15:48:01;15.30;99.90
27848;DHT22;15212;48.830;8.730;2023-05-10T15:50:29;15.30;99.90
27848;DHT22;15212;48.830;8.730;2023-05-10T15:52:58;15.20;99.90
27848;DHT22;15212;48.830;8.730;2023-05-10T15:55:26;15.10;99.90
27848;DHT22;15212;48.830;8.730;2023-05-10T15:57:54;15.00;99.90
27848;DHT22;15212;48.830;8.730;2023-05-10T16:00:23;14.80;99.90
27848;DHT22;15212;48.830;8.730;2023-05-10T16:02:51;14.70;99.90
27848;DHT22;15212;48.830;8.730;2023-05-10T16:05:20;14.60;99.90
27848;DHT22;15212;48.830;8.730;2023-05-10T16:07:48;14.50;99.90
27848;DHT22;15212;48.830;8.730;2023-05-10T16:10:17;14.40;99.90